sensor_id;sensor_type;location;lat;lon;timestamp;pressure;altitude;pressure_sealevel;temperature;humidity
51603;BME280;37954;51.980;5.850;2023-04-25T00:01:58;100639.44;;;7.20;85.89
51603;BME280;37954;51.980;5.850;2023-04-25T00:06:11;100646.41;;;7.14;86.27
51603;BME280;37954;51.980;5.850;2023-04-25T00:10:23;100650.09;;;7.00;86.38
51603;BME280;37954;51.980;5.850;2023-04-25T00:14:35;100683.19;;;7.06;86.57
51603;BME280;37954;51.980;5.850;2023-04-25T00:18:47;100703.72;;;7.05;86.15
51603;BME280;37954;51.980;5.850;2023-04-25T00:23:02;100693.41;;;6.95;85.84
51603;BME280;37954;51.980;5.850;2023-04-25T00:27:14;100701.00;;;6.92;85.27
51603;BME280;37954;51.980;5.850;2023-04-25T00:31:26;100694.19;;;6.83;85.81
51603;BME280;37954;51.980;5.850;2023-04-25T00:35:38;100678.56;;;6.73;85.47
51603;BME280;37954;51.980;5.850;2023-04-25T00:39:50;100704.44;;;6.79;85.60
51603;BME280;37954;51.980;5.850;2023-04-25T00:44:03;100699.28;;;6.78;85.74
51603;BME280;37954;51.980;5.850;2023-04-25T00:48:19;100694.38;;;6.81;86.27
51603;BME280;37954;51.980;5.850;2023-04-25T00:52:33;100705.09;;;6.94;86.78
51603;BME280;37954;51.980;5.850;2023-04-25T00:56:45;100707.19;;;6.92;86.24
51603;BME280;37954;51.980;5.850;2023-04-25T01:00:57;100676.06;;;6.65;86.63
51603;BME280;37954;51.980;5.850;2023-04-25T01:05:09;100676.88;;;6.66;86.32
51603;BME280;37954;51.980;5.850;2023-04-25T01:09:22;100700.06;;;6.65;86.29
51603;BME280;37954;51.980;5.850;2023-04-25T01:13:34;100728.84;;;6.70;86.44
51603;BME280;37954;51.980;5.850;2023-04-25T01:17:46;100713.38;;;6.58;86.63
51603;BME280;37954;51.980;5.850;2023-04-25T01:21:58;100698.13;;;6.46;86.99
51603;BME280;37954;51.980;5.850;2023-04-25T01:26:11;100705.34;;;6.52;87.28
51603;BME280;37954;51.980;5.850;2023-04-25T01:30:24;100723.44;;;6.56;87.09
51603;BME280;37954;51.980;5.850;2023-04-25T01:34:37;100725.50;;;6.61;87.63
51603;BME280;37954;51.980;5.850;2023-04-25T01:38:49;100718.94;;;6.63;87.68
51603;BME280;37954;51.980;5.850;2023-04-25T01:43:01;100728.03;;;6.76;88.06
51603;BME280;37954;51.980;5.850;2023-04-25T01:47:16;100709.91;;;6.64;87.69
51603;BME280;37954;51.980;5.850;2023-04-25T01:51:28;100738.34;;;6.85;88.12
51603;BME280;37954;51.980;5.850;2023-04-25T01:55:40;100749.66;;;6.87;87.68
51603;BME280;37954;51.980;5.850;2023-04-25T01:59:58;100741.81;;;6.79;88.17
51603;BME280;37954;51.980;5.850;2023-04-25T02:04:22;100740.16;;;6.78;88.19
51603;BME280;37954;51.980;5.850;2023-04-25T02:08:35;100763.59;;;6.83;88.02
51603;BME280;37954;51.980;5.850;2023-04-25T02:12:51;100739.91;;;6.67;88.08
51603;BME280;37954;51.980;5.850;2023-04-25T02:17:10;100741.31;;;6.62;87.16
51603;BME280;37954;51.980;5.850;2023-04-25T02:21:22;100765.00;;;6.79;87.25
51603;BME280;37954;51.980;5.850;2023-04-25T02:25:33;100756.56;;;6.69;87.23
51603;BME280;37954;51.980;5.850;2023-04-25T02:29:45;100749.13;;;6.57;87.24
51603;BME280;37954;51.980;5.850;2023-04-25T02:33:57;100764.75;;;6.67;86.98
51603;BME280;37954;51.980;5.850;2023-04-25T02:38:09;100760.63;;;6.64;87.05
51603;BME280;37954;51.980;5.850;2023-04-25T02:42:21;100754.41;;;6.51;86.64
51603;BME280;37954;51.980;5.850;2023-04-25T02:46:34;100769.53;;;6.44;86.44
51603;BME280;37954;51.980;5.850;2023-04-25T02:50:50;100748.66;;;6.19;86.36
51603;BME280;37954;51.980;5.850;2023-04-25T02:55:02;100760.53;;;6.17;86.16
51603;BME280;37954;51.980;5.850;2023-04-25T02:59:15;100756.75;;;6.05;86.14
51603;BME280;37954;51.980;5.850;2023-04-25T03:03:27;100739.75;;;5.84;86.15
51603;BME280;37954;51.980;5.850;2023-04-25T03:07:39;100745.25;;;5.83;86.05
51603;BME280;37954;51.980;5.850;2023-04-25T03:11:51;100753.19;;;5.76;86.07
51603;BME280;37954;51.980;5.850;2023-04-25T03:16:03;100778.63;;;5.79;85.71
51603;BME280;37954;51.980;5.850;2023-04-25T03:20:15;100779.00;;;5.76;86.10
51603;BME280;37954;51.980;5.850;2023-04-25T03:24:27;100781.81;;;5.68;85.96
51603;BME280;37954;51.980;5.850;2023-04-25T03:28:39;100760.31;;;5.48;85.83
51603;BME280;37954;51.980;5.850;2023-04-25T03:32:51;100761.41;;;5.39;85.41
51603;BME280;37954;51.980;5.850;2023-04-25T03:37:03;100755.69;;;5.35;86.00
51603;BME280;37954;51.980;5.850;2023-04-25T03:41:19;100766.69;;;5.32;86.01
51603;BME280;37954;51.980;5.850;2023-04-25T03:45:36;100802.97;;;5.54;86.13
51603;BME280;37954;51.980;5.850;2023-04-25T03:49:48;100785.56;;;5.52;86.26
51603;BME280;37954;51.980;5.850;2023-04-25T03:54:05;100801.50;;;5.67;86.63
51603;BME280;37954;51.980;5.850;2023-04-25T03:58:35;100794.69;;;5.64;86.75
51603;BME280;37954;51.980;5.850;2023-04-25T04:02:47;100798.56;;;5.62;87.01
51603;BME280;37954;51.980;5.850;2023-04-25T04:06:59;100800.06;;;5.49;86.82
51603;BME280;37954;51.980;5.850;2023-04-25T04:11:14;100802.47;;;5.44;86.43
51603;BME280;37954;51.980;5.850;2023-04-25T04:15:26;100807.72;;;5.38;86.20
51603;BME280;37954;51.980;5.850;2023-04-25T04:19:38;100818.94;;;5.33;86.49
51603;BME280;37954;51.980;5.850;2023-04-25T04:23:54;100819.69;;;5.27;86.35
51603;BME280;37954;51.980;5.850;2023-04-25T04:28:06;100825.38;;;5.24;86.36
51603;BME280;37954;51.980;5.850;2023-04-25T04:32:32;100820.63;;;5.19;86.63
51603;BME280;37954;51.980;5.850;2023-04-25T04:36:47;100793.94;;;4.98;86.41
51603;BME280;37954;51.980;5.850;2023-04-25T04:40:59;100817.06;;;5.12;86.35
51603;BME280;37954;51.980;5.850;2023-04-25T04:45:29;100842.47;;;5.30;86.71
51603;BME280;37954;51.980;5.850;2023-04-25T04:50:06;100850.72;;;5.35;87.15
51603;BME280;37954;51.980;5.850;2023-04-25T04:54:38;100851.16;;;5.38;86.95
51603;BME280;37954;51.980;5.850;2023-04-25T04:59:04;100851.06;;;5.46;87.01
51603;BME280;37954;51.980;5.850;2023-04-25T05:03:26;100857.50;;;5.52;86.99
51603;BME280;37954;51.980;5.850;2023-04-25T05:08:01;100875.66;;;5.63;86.88
51603;BME280;37954;51.980;5.850;2023-04-25T05:12:25;100879.66;;;5.74;86.76
51603;BME280;37954;51.980;5.850;2023-04-25T05:16:55;100882.03;;;5.83;87.30
51603;BME280;37954;51.980;5.850;2023-04-25T05:21:27;100893.34;;;6.07;87.14
51603;BME280;37954;51.980;5.850;2023-04-25T05:25:53;100902.97;;;6.22;87.23
51603;BME280;37954;51.980;5.850;2023-04-25T05:30:28;100909.06;;;6.38;86.74
51603;BME280;37954;51.980;5.850;2023-04-25T05:34:50;100903.06;;;6.57;86.86
51603;BME280;37954;51.980;5.850;2023-04-25T05:39:21;100901.34;;;6.77;86.76
51603;BME280;37954;51.980;5.850;2023-04-25T05:43:57;100904.16;;;6.97;86.69
51603;BME280;37954;51.980;5.850;2023-04-25T05:48:14;100906.56;;;7.20;86.54
51603;BME280;37954;51.980;5.850;2023-04-25T05:52:44;100912.69;;;8.16;86.56
51603;BME280;37954;51.980;5.850;2023-04-25T05:57:08;100920.69;;;9.41;85.79
51603;BME280;37954;51.980;5.850;2023-04-25T06:01:19;100937.44;;;9.81;83.66
51603;BME280;37954;51.980;5.850;2023-04-25T06:05:31;100943.88;;;10.56;82.26
51603;BME280;37954;51.980;5.850;2023-04-25T06:09:44;100936.09;;;10.73;79.16
51603;BME280;37954;51.980;5.850;2023-04-25T06:13:56;100943.63;;;10.26;75.27
51603;BME280;37954;51.980;5.850;2023-04-25T06:18:08;100951.69;;;9.82;74.14
51603;BME280;37954;51.980;5.850;2023-04-25T06:22:20;100955.91;;;9.58;75.16
51603;BME280;37954;51.980;5.850;2023-04-25T06:26:32;100949.75;;;9.37;74.28
51603;BME280;37954;51.980;5.850;2023-04-25T06:30:44;100948.94;;;9.43;74.42
51603;BME280;37954;51.980;5.850;2023-04-25T06:35:01;100964.13;;;9.69;74.80
51603;BME280;37954;51.980;5.850;2023-04-25T06:39:13;100957.00;;;9.88;74.05
51603;BME280;37954;51.980;5.850;2023-04-25T06:43:31;100961.50;;;10.01;73.64
51603;BME280;37954;51.980;5.850;2023-04-25T06:48:46;100967.84;;;10.13;73.32
51603;BME280;37954;51.980;5.850;2023-04-25T06:53:07;100960.63;;;10.13;72.94
51603;BME280;37954;51.980;5.850;2023-04-25T06:57:21;100983.75;;;10.08;71.81
51603;BME280;37954;51.980;5.850;2023-04-25T07:01:35;100966.34;;;9.86;71.73
51603;BME280;37954;51.980;5.850;2023-04-25T07:05:59;100982.38;;;9.92;72.15
51603;BME280;37954;51.980;5.850;2023-04-25T07:10:14;100987.88;;;10.10;71.88
51603;BME280;37954;51.980;5.850;2023-04-25T07:14:27;100983.66;;;10.34;71.05
51603;BME280;37954;51.980;5.850;2023-04-25T07:18:39;100992.72;;;10.96;70.12
51603;BME280;37954;51.980;5.850;2023-04-25T07:27:50;100987.53;;;13.36;67.34
51603;BME280;37954;51.980;5.850;2023-04-25T07:38:15;100991.44;;;14.93;59.49
51603;BME280;37954;51.980;5.850;2023-04-25T07:42:27;100990.19;;;14.51;55.93
51603;BME280;37954;51.980;5.850;2023-04-25T07:46:39;101007.97;;;14.63;54.91
51603;BME280;37954;51.980;5.850;2023-04-25T07:50:53;101010.53;;;14.53;53.87
51603;BME280;37954;51.980;5.850;2023-04-25T07:55:15;100994.69;;;14.05;52.60
51603;BME280;37954;51.980;5.850;2023-04-25T08:00:07;101012.69;;;14.28;53.29
51603;BME280;37954;51.980;5.850;2023-04-25T08:04:24;101041.31;;;14.52;52.30
51603;BME280;37954;51.980;5.850;2023-04-25T08:08:48;101031.91;;;14.15;51.23
51603;BME280;37954;51.980;5.850;2023-04-25T08:13:06;101038.41;;;14.71;52.40
51603;BME280;37954;51.980;5.850;2023-04-25T08:17:19;101054.91;;;15.36;49.44
51603;BME280;37954;51.980;5.850;2023-04-25T08:21:31;101050.84;;;16.11;47.51
51603;BME280;37954;51.980;5.850;2023-04-25T08:25:48;101048.22;;;17.23;45.67
51603;BME280;37954;51.980;5.850;2023-04-25T08:30:09;101041.78;;;18.29;43.16
51603;BME280;37954;51.980;5.850;2023-04-25T08:34:24;101045.44;;;18.60;40.15
51603;BME280;37954;51.980;5.850;2023-04-25T08:38:37;101061.03;;;17.33;40.22
51603;BME280;37954;51.980;5.850;2023-04-25T08:42:53;101052.94;;;16.25;40.75
51603;BME280;37954;51.980;5.850;2023-04-25T08:47:06;101082.97;;;15.30;42.36
51603;BME280;37954;51.980;5.850;2023-04-25T08:51:31;101074.00;;;14.51;43.64
51603;BME280;37954;51.980;5.850;2023-04-25T08:55:53;101069.06;;;13.73;44.45
51603;BME280;37954;51.980;5.850;2023-04-25T09:00:12;101079.34;;;13.17;46.12
51603;BME280;37954;51.980;5.850;2023-04-25T09:04:30;101114.41;;;12.76;46.58
51603;BME280;37954;51.980;5.850;2023-04-25T09:08:43;101118.13;;;12.27;47.70
51603;BME280;37954;51.980;5.850;2023-04-25T09:13:12;101133.06;;;11.86;50.29
51603;BME280;37954;51.980;5.850;2023-04-25T10:26:31;101156.66;;;15.82;37.04
51603;BME280;37954;51.980;5.850;2023-04-25T10:31:10;101163.13;;;15.98;37.51
51603;BME280;37954;51.980;5.850;2023-04-25T10:35:27;101172.25;;;15.13;37.26
51603;BME280;37954;51.980;5.850;2023-04-25T10:39:40;101174.22;;;14.38;39.27
51603;BME280;37954;51.980;5.850;2023-04-25T10:43:59;101190.97;;;14.00;41.20
51603;BME280;37954;51.980;5.850;2023-04-25T10:48:25;101186.13;;;13.78;41.23
51603;BME280;37954;51.980;5.850;2023-04-25T10:52:40;101212.56;;;14.11;40.66
51603;BME280;37954;51.980;5.850;2023-04-25T10:56:52;101209.25;;;14.21;40.73
51603;BME280;37954;51.980;5.850;2023-04-25T11:01:06;101200.34;;;14.44;40.56
51603;BME280;37954;51.980;5.850;2023-04-25T11:05:36;101219.22;;;15.81;39.69
51603;BME280;37954;51.980;5.850;2023-04-25T11:10:06;101190.34;;;16.85;38.32
51603;BME280;37954;51.980;5.850;2023-04-25T11:14:19;101212.72;;;18.10;36.79
51603;BME280;37954;51.980;5.850;2023-04-25T11:18:32;101213.38;;;18.69;35.33
51603;BME280;37954;51.980;5.850;2023-04-25T11:22:46;101209.91;;;18.84;34.06
51603;BME280;37954;51.980;5.850;2023-04-25T11:27:04;101210.94;;;18.68;33.20
51603;BME280;37954;51.980;5.850;2023-04-25T11:31:24;101200.88;;;18.78;32.69
51603;BME280;37954;51.980;5.850;2023-04-25T11:35:40;101180.91;;;18.58;32.63
51603;BME280;37954;51.980;5.850;2023-04-25T11:39:55;101186.78;;;18.39;33.12
51603;BME280;37954;51.980;5.850;2023-04-25T11:44:07;101197.66;;;17.07;33.63
51603;BME280;37954;51.980;5.850;2023-04-25T11:48:19;101209.31;;;16.42;33.74
51603;BME280;37954;51.980;5.850;2023-04-25T11:52:43;101197.38;;;16.04;34.56
51603;BME280;37954;51.980;5.850;2023-04-25T11:56:55;101197.88;;;16.01;34.88
51603;BME280;37954;51.980;5.850;2023-04-25T12:01:08;101193.09;;;16.25;35.57
51603;BME280;37954;51.980;5.850;2023-04-25T12:05:20;101202.38;;;15.79;35.15
51603;BME280;37954;51.980;5.850;2023-04-25T12:09:51;101213.16;;;15.00;36.87
51603;BME280;37954;51.980;5.850;2023-04-25T12:14:05;101237.09;;;14.10;39.91
51603;BME280;37954;51.980;5.850;2023-04-25T12:18:23;101252.75;;;13.24;42.08
51603;BME280;37954;51.980;5.850;2023-04-25T12:22:35;101257.06;;;12.59;45.01
51603;BME280;37954;51.980;5.850;2023-04-25T12:27:02;101251.56;;;12.04;46.12
51603;BME280;37954;51.980;5.850;2023-04-25T12:31:17;101239.03;;;11.92;46.67
51603;BME280;37954;51.980;5.850;2023-04-25T12:35:29;101261.34;;;12.24;47.42
51603;BME280;37954;51.980;5.850;2023-04-25T12:39:41;101275.75;;;12.72;47.23
51603;BME280;37954;51.980;5.850;2023-04-25T12:43:53;101274.34;;;12.88;46.69
51603;BME280;37954;51.980;5.850;2023-04-25T12:48:05;101237.41;;;13.07;46.39
51603;BME280;37954;51.980;5.850;2023-04-25T12:52:17;101262.19;;;13.75;45.65
51603;BME280;37954;51.980;5.850;2023-04-25T12:56:29;101272.59;;;14.02;43.62
51603;BME280;37954;51.980;5.850;2023-04-25T13:00:41;101241.69;;;14.09;42.15
51603;BME280;37954;51.980;5.850;2023-04-25T13:04:53;101250.75;;;14.15;41.67
51603;BME280;37954;51.980;5.850;2023-04-25T13:09:05;101251.44;;;14.10;41.62
51603;BME280;37954;51.980;5.850;2023-04-25T13:13:18;101238.50;;;14.24;42.00
51603;BME280;37954;51.980;5.850;2023-04-25T13:17:30;101240.88;;;14.20;42.00
51603;BME280;37954;51.980;5.850;2023-04-25T13:21:42;101233.91;;;13.89;41.95
51603;BME280;37954;51.980;5.850;2023-04-25T13:25:54;101261.75;;;13.90;43.19
51603;BME280;37954;51.980;5.850;2023-04-25T13:30:06;101255.44;;;14.08;42.80
51603;BME280;37954;51.980;5.850;2023-04-25T13:34:18;101255.31;;;14.26;42.53
51603;BME280;37954;51.980;5.850;2023-04-25T13:38:30;101272.78;;;13.88;42.28
51603;BME280;37954;51.980;5.850;2023-04-25T13:42:42;101263.34;;;13.38;41.93
51603;BME280;37954;51.980;5.850;2023-04-25T13:46:55;101249.22;;;13.24;41.80
51603;BME280;37954;51.980;5.850;2023-04-25T13:51:07;101251.88;;;13.42;42.02
51603;BME280;37954;51.980;5.850;2023-04-25T13:55:19;101250.41;;;13.58;41.92
51603;BME280;37954;51.980;5.850;2023-04-25T13:59:31;101267.81;;;13.62;40.37
51603;BME280;37954;51.980;5.850;2023-04-25T14:03:43;101262.47;;;13.55;40.62
51603;BME280;37954;51.980;5.850;2023-04-25T14:07:55;101250.09;;;13.36;39.43
51603;BME280;37954;51.980;5.850;2023-04-25T14:12:07;101268.72;;;13.26;40.23
51603;BME280;37954;51.980;5.850;2023-04-25T14:16:19;101300.88;;;12.91;42.32
51603;BME280;37954;51.980;5.850;2023-04-25T14:20:31;101274.31;;;12.51;43.66
51603;BME280;37954;51.980;5.850;2023-04-25T14:24:43;101283.69;;;12.67;44.01
51603;BME280;37954;51.980;5.850;2023-04-25T14:28:54;101287.66;;;12.83;43.46
51603;BME280;37954;51.980;5.850;2023-04-25T14:33:06;101291.41;;;13.37;43.56
51603;BME280;37954;51.980;5.850;2023-04-25T14:37:18;101284.13;;;13.67;41.97
51603;BME280;37954;51.980;5.850;2023-04-25T14:41:29;101258.66;;;13.75;40.47
51603;BME280;37954;51.980;5.850;2023-04-25T14:45:41;101268.31;;;13.82;40.14
51603;BME280;37954;51.980;5.850;2023-04-25T14:49:53;101297.31;;;13.87;39.58
51603;BME280;37954;51.980;5.850;2023-04-25T14:54:05;101271.56;;;13.73;39.18
51603;BME280;37954;51.980;5.850;2023-04-25T14:58:17;101263.69;;;13.71;40.02
51603;BME280;37954;51.980;5.850;2023-04-25T15:02:29;101290.63;;;13.89;40.41
51603;BME280;37954;51.980;5.850;2023-04-25T15:06:41;101295.03;;;13.61;40.63
51603;BME280;37954;51.980;5.850;2023-04-25T15:10:53;101292.03;;;13.80;41.09
51603;BME280;37954;51.980;5.850;2023-04-25T15:15:06;101284.84;;;13.74;40.19
51603;BME280;37954;51.980;5.850;2023-04-25T15:19:18;101296.38;;;13.51;40.05
51603;BME280;37954;51.980;5.850;2023-04-25T15:23:29;101305.44;;;13.09;39.89
51603;BME280;37954;51.980;5.850;2023-04-25T15:27:41;101307.28;;;12.72;41.40
51603;BME280;37954;51.980;5.850;2023-04-25T15:31:55;101308.88;;;12.36;43.24
51603;BME280;37954;51.980;5.850;2023-04-25T15:36:07;101337.16;;;12.27;44.87
51603;BME280;37954;51.980;5.850;2023-04-25T15:40:19;101318.34;;;12.20;46.04
51603;BME280;37954;51.980;5.850;2023-04-25T15:44:30;101322.56;;;12.35;46.18
51603;BME280;37954;51.980;5.850;2023-04-25T15:48:42;101322.59;;;12.78;45.91
51603;BME280;37954;51.980;5.850;2023-04-25T15:52:54;101321.97;;;12.76;45.07
51603;BME280;37954;51.980;5.850;2023-04-25T15:57:06;101336.19;;;12.83;43.68
51603;BME280;37954;51.980;5.850;2023-04-25T16:01:20;101345.69;;;12.67;42.70
51603;BME280;37954;51.980;5.850;2023-04-25T16:05:35;101323.78;;;12.39;42.14
51603;BME280;37954;51.980;5.850;2023-04-25T16:09:47;101334.53;;;12.14;43.59
51603;BME280;37954;51.980;5.850;2023-04-25T16:13:59;101346.13;;;11.90;43.88
51603;BME280;37954;51.980;5.850;2023-04-25T16:18:11;101341.66;;;11.77;43.85
51603;BME280;37954;51.980;5.850;2023-04-25T16:22:23;101323.34;;;11.47;42.78
51603;BME280;37954;51.980;5.850;2023-04-25T16:26:35;101339.91;;;11.44;42.27
51603;BME280;37954;51.980;5.850;2023-04-25T16:30:47;101320.94;;;11.26;42.70
51603;BME280;37954;51.980;5.850;2023-04-25T16:34:59;101334.03;;;11.16;42.98
51603;BME280;37954;51.980;5.850;2023-04-25T16:39:11;101345.81;;;11.22;44.64
51603;BME280;37954;51.980;5.850;2023-04-25T16:43:22;101336.16;;;11.01;45.31
51603;BME280;37954;51.980;5.850;2023-04-25T16:47:34;101342.78;;;10.92;45.94
51603;BME280;37954;51.980;5.850;2023-04-25T16:51:47;101361.22;;;10.88;46.25
51603;BME280;37954;51.980;5.850;2023-04-25T16:55:58;101377.34;;;10.88;46.46
51603;BME280;37954;51.980;5.850;2023-04-25T17:00:10;101358.34;;;10.57;47.16
51603;BME280;37954;51.980;5.850;2023-04-25T17:04:23;101355.88;;;10.35;48.49
51603;BME280;37954;51.980;5.850;2023-04-25T17:08:36;101351.13;;;10.31;48.90
51603;BME280;37954;51.980;5.850;2023-04-25T17:12:48;101357.53;;;10.30;49.43
51603;BME280;37954;51.980;5.850;2023-04-25T17:17:00;101356.28;;;10.19;49.83
51603;BME280;37954;51.980;5.850;2023-04-25T17:21:12;101370.53;;;10.26;50.02
51603;BME280;37954;51.980;5.850;2023-04-25T17:25:24;101388.94;;;10.42;49.93
51603;BME280;37954;51.980;5.850;2023-04-25T17:29:35;101382.94;;;10.34;49.88
51603;BME280;37954;51.980;5.850;2023-04-25T17:33:47;101395.31;;;10.22;50.52
51603;BME280;37954;51.980;5.850;2023-04-25T17:37:59;101390.53;;;10.04;50.16
51603;BME280;37954;51.980;5.850;2023-04-25T17:42:11;101382.00;;;9.87;50.51
51603;BME280;37954;51.980;5.850;2023-04-25T17:46:23;101401.25;;;9.97;51.24
51603;BME280;37954;51.980;5.850;2023-04-25T17:50:34;101390.28;;;9.92;51.55
51603;BME280;37954;51.980;5.850;2023-04-25T17:54:46;101387.75;;;9.77;51.73
51603;BME280;37954;51.980;5.850;2023-04-25T17:59:00;101388.34;;;9.66;52.30
51603;BME280;37954;51.980;5.850;2023-04-25T18:03:11;101409.81;;;9.73;51.86
51603;BME280;37954;51.980;5.850;2023-04-25T18:07:23;101407.69;;;9.55;52.57
51603;BME280;37954;51.980;5.850;2023-04-25T18:11:35;101417.00;;;9.59;52.68
51603;BME280;37954;51.980;5.850;2023-04-25T18:15:47;101421.53;;;9.52;52.57
51603;BME280;37954;51.980;5.850;2023-04-25T18:19:59;101420.03;;;9.43;53.00
51603;BME280;37954;51.980;5.850;2023-04-25T18:24:12;101429.66;;;9.31;52.76
51603;BME280;37954;51.980;5.850;2023-04-25T18:28:24;101429.19;;;9.21;52.34
51603;BME280;37954;51.980;5.850;2023-04-25T18:32:36;101427.44;;;9.06;51.96
51603;BME280;37954;51.980;5.850;2023-04-25T18:36:48;101423.84;;;8.93;52.21
51603;BME280;37954;51.980;5.850;2023-04-25T18:41:02;101441.78;;;8.92;52.26
51603;BME280;37954;51.980;5.850;2023-04-25T18:45:34;101447.25;;;8.84;52.40
51603;BME280;37954;51.980;5.850;2023-04-25T18:49:46;101461.31;;;8.86;52.66
51603;BME280;37954;51.980;5.850;2023-04-25T18:53:58;101478.16;;;8.80;52.59
51603;BME280;37954;51.980;5.850;2023-04-25T18:58:10;101480.13;;;8.71;53.10
51603;BME280;37954;51.980;5.850;2023-04-25T19:02:22;101480.09;;;8.65;53.33
51603;BME280;37954;51.980;5.850;2023-04-25T19:06:34;101470.06;;;8.52;53.73
51603;BME280;37954;51.980;5.850;2023-04-25T19:10:48;101476.22;;;8.46;54.43
51603;BME280;37954;51.980;5.850;2023-04-25T19:15:00;101497.38;;;8.41;55.21
51603;BME280;37954;51.980;5.850;2023-04-25T19:19:12;101471.75;;;8.17;55.35
51603;BME280;37954;51.980;5.850;2023-04-25T19:23:24;101478.56;;;8.20;55.64
51603;BME280;37954;51.980;5.850;2023-04-25T19:27:37;101480.91;;;8.08;56.07
51603;BME280;37954;51.980;5.850;2023-04-25T19:31:49;101493.28;;;8.09;56.34
51603;BME280;37954;51.980;5.850;2023-04-25T19:36:00;101484.66;;;7.92;57.34
51603;BME280;37954;51.980;5.850;2023-04-25T19:40:13;101463.00;;;7.73;57.39
51603;BME280;37954;51.980;5.850;2023-04-25T19:44:26;101507.63;;;7.87;57.73
51603;BME280;37954;51.980;5.850;2023-04-25T19:48:38;101500.31;;;7.81;58.36
51603;BME280;37954;51.980;5.850;2023-04-25T19:52:50;101477.66;;;7.62;58.62
51603;BME280;37954;51.980;5.850;2023-04-25T19:57:03;101487.28;;;7.56;58.81
51603;BME280;37954;51.980;5.850;2023-04-25T20:01:15;101500.81;;;7.55;59.58
51603;BME280;37954;51.980;5.850;2023-04-25T20:05:27;101522.22;;;7.55;59.61
51603;BME280;37954;51.980;5.850;2023-04-25T20:09:39;101524.94;;;7.47;59.45
51603;BME280;37954;51.980;5.850;2023-04-25T20:13:51;101493.34;;;7.21;60.76
51603;BME280;37954;51.980;5.850;2023-04-25T20:18:03;101514.19;;;7.25;60.60
51603;BME280;37954;51.980;5.850;2023-04-25T20:22:15;101514.78;;;7.13;60.71
51603;BME280;37954;51.980;5.850;2023-04-25T20:26:27;101512.03;;;7.06;61.21
51603;BME280;37954;51.980;5.850;2023-04-25T20:30:39;101517.25;;;6.99;61.76
51603;BME280;37954;51.980;5.850;2023-04-25T20:34:51;101517.94;;;6.93;62.17
51603;BME280;37954;51.980;5.850;2023-04-25T20:39:22;101524.13;;;6.94;62.43
51603;BME280;37954;51.980;5.850;2023-04-25T20:43:34;101503.28;;;6.75;62.71
51603;BME280;37954;51.980;5.850;2023-04-25T20:47:48;101517.00;;;6.72;63.48
51603;BME280;37954;51.980;5.850;2023-04-25T20:52:01;101520.19;;;6.67;63.01
51603;BME280;37954;51.980;5.850;2023-04-25T20:56:13;101513.31;;;6.50;64.20
51603;BME280;37954;51.980;5.850;2023-04-25T21:00:25;101498.53;;;6.39;63.94
51603;BME280;37954;51.980;5.850;2023-04-25T21:04:39;101527.34;;;6.44;64.66
51603;BME280;37954;51.980;5.850;2023-04-25T21:08:51;101524.41;;;6.39;64.74
51603;BME280;37954;51.980;5.850;2023-04-25T21:13:06;101522.41;;;6.33;65.38
51603;BME280;37954;51.980;5.850;2023-04-25T21:17:17;101524.13;;;6.25;65.92
51603;BME280;37954;51.980;5.850;2023-04-25T21:21:29;101522.19;;;6.19;66.59
51603;BME280;37954;51.980;5.850;2023-04-25T21:25:42;101520.84;;;6.15;66.13
51603;BME280;37954;51.980;5.850;2023-04-25T21:29:54;101525.53;;;6.13;67.24
51603;BME280;37954;51.980;5.850;2023-04-25T21:34:06;101541.69;;;6.20;67.13
51603;BME280;37954;51.980;5.850;2023-04-25T21:38:17;101530.72;;;6.07;67.14
51603;BME280;37954;51.980;5.850;2023-04-25T21:42:29;101531.56;;;6.07;66.92
51603;BME280;37954;51.980;5.850;2023-04-25T21:46:41;101528.44;;;5.96;67.76
51603;BME280;37954;51.980;5.850;2023-04-25T21:50:53;101536.28;;;5.97;67.65
51603;BME280;37954;51.980;5.850;2023-04-25T21:55:06;101499.84;;;5.73;67.54
51603;BME280;37954;51.980;5.850;2023-04-25T21:59:18;101527.66;;;5.79;67.80
51603;BME280;37954;51.980;5.850;2023-04-25T22:03:33;101535.66;;;5.79;67.83
51603;BME280;37954;51.980;5.850;2023-04-25T22:07:45;101517.72;;;5.65;67.91
51603;BME280;37954;51.980;5.850;2023-04-25T22:11:57;101540.38;;;5.69;67.86
51603;BME280;37954;51.980;5.850;2023-04-25T22:16:09;101546.03;;;5.66;68.15
51603;BME280;37954;51.980;5.850;2023-04-25T22:20:23;101544.03;;;5.59;68.46
51603;BME280;37954;51.980;5.850;2023-04-25T22:24:36;101556.69;;;5.57;68.72
51603;BME280;37954;51.980;5.850;2023-04-25T22:28:49;101557.72;;;5.48;68.87
51603;BME280;37954;51.980;5.850;2023-04-25T22:33:02;101546.91;;;5.42;69.58
51603;BME280;37954;51.980;5.850;2023-04-25T22:37:13;101545.28;;;5.33;69.31
51603;BME280;37954;51.980;5.850;2023-04-25T22:41:25;101571.06;;;5.48;69.59
51603;BME280;37954;51.980;5.850;2023-04-25T22:45:37;101566.06;;;5.37;69.41
51603;BME280;37954;51.980;5.850;2023-04-25T22:49:48;101555.59;;;5.28;69.87
51603;BME280;37954;51.980;5.850;2023-04-25T22:54:00;101553.44;;;5.23;69.42
51603;BME280;37954;51.980;5.850;2023-04-25T22:58:12;101563.59;;;5.28;69.23
51603;BME280;37954;51.980;5.850;2023-04-25T23:02:23;101565.78;;;5.16;69.82
51603;BME280;37954;51.980;5.850;2023-04-25T23:06:36;101567.09;;;5.20;70.01
51603;BME280;37954;51.980;5.850;2023-04-25T23:10:48;101564.44;;;5.12;70.21
51603;BME280;37954;51.980;5.850;2023-04-25T23:15:00;101565.09;;;5.06;70.23
51603;BME280;37954;51.980;5.850;2023-04-25T23:19:13;101552.44;;;4.92;70.05
51603;BME280;37954;51.980;5.850;2023-04-25T23:23:24;101553.97;;;4.94;70.69
51603;BME280;37954;51.980;5.850;2023-04-25T23:27:36;101577.91;;;5.02;70.55
51603;BME280;37954;51.980;5.850;2023-04-25T23:31:48;101576.25;;;4.93;70.71
51603;BME280;37954;51.980;5.850;2023-04-25T23:36:00;101582.56;;;4.92;71.06
51603;BME280;37954;51.980;5.850;2023-04-25T23:40:11;101581.91;;;4.90;70.91